Terminal Aerodrome Forecast
Issued by NWS

Home | Current Version | Previous Version | Text Only | Print | Product List | Glossary Off
Versions: 1 2 3 4 5 6 7 8 9 10 11 12 13 14 15 16 17 18 19

000
FTUS43 KGRB 210200 AAA
TAFAUW
TAF AMD
KAUW 210210Z 2102/2124 30004KT 6SM -SHRA BR SCT035 OVC070
      TEMPO 2103/2105 29020G35KT 3SM TSRA BR OVC025CB
     FM210600 32007KT 5SM -RA BR SCT012 OVC020
      TEMPO 2109/2113 3SM RA BKN006 OVC012
     FM211400 35009KT P6SM BKN015
     FM211700 34009KT P6SM BKN025
     FM211900 34008KT P6SM SCT035=

USA.gov is the U.S. government's official web portal to all federal, state and local government web resources and services.